ZPPP/KMG METAR and TAF weather

Enter ICAO airport designator
Station Type Date Time Source
ZPPP METAR 2019/06/19 07:00 UTC NOAA

ZPPP 190700Z 21004MPS 9999 FEW026TCU SCT026 BKN040 22/18 Q1016 NOSIG


Station Type Date Time Source
ZPPP Decoded METAR 2019/06/19 07:00 UTC NOAA

Kunming, China (ZPPP) 25-01N 102-41E 1892M
Jun 19, 2019 - 03:00 AM EDT / 2019.06.19 0700 UTC
Wind: from the SSW (210 degrees) at 9 MPH (8 KT):0
Visibility: greater than 7 mile(s):0
Sky conditions: mostly cloudy
Weather: Towering cumulus clouds observed
Temperature: 71 F (22 C)
Dew Point: 64 F (18 C)
Relative Humidity: 78%
Pressure (altimeter): 30.00 in. Hg (1016 hPa)
ob: ZPPP 190700Z 21004MPS 9999 FEW026TCU SCT026 BKN040 22/18 Q1016 NOSIG
cycle: 7

Station Type Date Time Source
ZPPP TAF 2019/06/19 06:03 UTC NOAA

TAF ZPPP 190112Z 1906/2006 22006MPS 9999 SCT026 BKN040 TX28/1908Z TN18/1923Z

Example: see airport list